Time;durP1;ratioP1;P1;durP2;ratioP2;P2;SDS_P1;SDS_P2;PMS_P1;PMS_P2;Temp;Humidity;BMP_temperature;BMP_pressure;BME280_temperature;BME280_humidity;BME280_pressure;Samples;Min_cycle;Max_cycle;Signal;HPM_P1;HPM_P2
2023/12/26 00:08:48;;;;;;;10.65;1.48;;;11.40;99.90;;;;;;20667124;28;20482;-41
2023/12/26 00:18:49;;;;;;;9.43;1.10;;;11.40;99.90;;;;;;20672464;28;20328;-42
2023/12/26 00:28:49;;;;;;;5.03;0.95;;;11.40;99.90;;;;;;20671250;28;20065;-42
2023/12/26 00:38:50;;;;;;;7.35;1.40;;;11.30;99.90;;;;;;20668045;28;20190;-42
2023/12/26 00:48:50;;;;;;;7.32;1.75;;;11.40;99.90;;;;;;20671134;28;20489;-41
2023/12/26 00:58:51;;;;;;;12.25;2.35;;;11.40;99.90;;;;;;20668706;28;20064;-41
2023/12/26 01:08:51;;;;;;;11.98;1.90;;;11.40;99.90;;;;;;20667316;28;20490;-41
2023/12/26 01:18:52;;;;;;;9.80;2.38;;;11.30;99.90;;;;;;20667432;28;20053;-42
2023/12/26 01:28:53;;;;;;;13.88;1.90;;;11.30;99.90;;;;;;20663468;28;20088;-42
2023/12/26 01:38:53;;;;;;;10.80;1.77;;;11.40;99.90;;;;;;20665532;28;20058;-42
2023/12/26 01:48:55;;;;;;;11.88;1.67;;;11.30;99.90;;;;;;20663487;28;20053;-42
2023/12/26 01:58:55;;;;;;;10.15;1.90;;;11.40;99.90;;;;;;20663478;28;20050;-42
2023/12/26 02:08:56;;;;;;;6.07;0.60;;;11.40;99.90;;;;;;20664111;28;20054;-41
2023/12/26 02:18:57;;;;;;;7.60;1.10;;;11.10;99.90;;;;;;20662450;28;20093;-42
2023/12/26 02:28:58;;;;;;;6.65;0.90;;;10.80;99.90;;;;;;20663016;28;20046;-41
2023/12/26 02:39:00;;;;;;;9.95;1.48;;;10.80;99.90;;;;;;20672196;28;20053;-42
2023/12/26 02:49:00;;;;;;;11.93;1.42;;;10.90;99.90;;;;;;20676690;28;20137;-42
2023/12/26 02:59:01;;;;;;;8.90;1.13;;;10.90;99.90;;;;;;20675378;28;20523;-42
2023/12/26 03:09:01;;;;;;;10.00;1.20;;;10.80;99.90;;;;;;20676670;28;20370;-42
2023/12/26 03:19:02;;;;;;;15.50;1.58;;;10.70;99.90;;;;;;20675420;28;20200;-41
2023/12/26 03:29:03;;;;;;;8.52;1.00;;;10.70;99.90;;;;;;20675322;28;20058;-41
2023/12/26 03:39:04;;;;;;;7.55;1.02;;;10.60;99.90;;;;;;20663379;28;20064;-41
2023/12/26 03:49:04;;;;;;;4.45;0.95;;;10.30;99.90;;;;;;20672382;28;20043;-41
2023/12/26 03:59:06;;;;;;;8.57;0.98;;;10.10;99.90;;;;;;20673703;28;20417;-41
2023/12/26 04:09:06;;;;;;;6.28;0.98;;;9.90;95.10;;;;;;20673735;28;20061;-41
2023/12/26 04:19:07;;;;;;;4.82;1.27;;;9.80;80.20;;;;;;20670315;28;20038;-42
2023/12/26 04:29:07;;;;;;;7.78;0.80;;;9.50;83.90;;;;;;20672666;28;20057;-41
2023/12/26 04:39:08;;;;;;;12.43;1.02;;;9.40;79.80;;;;;;20668914;28;20520;-41
2023/12/26 04:49:09;;;;;;;4.72;1.08;;;9.40;91.30;;;;;;20668330;28;20525;-41
2023/12/26 04:59:09;;;;;;;5.70;1.35;;;9.40;81.00;;;;;;20666959;28;20572;-41
2023/12/26 05:09:10;;;;;;;7.15;1.15;;;9.40;52.40;;;;;;20667317;28;20076;-41
2023/12/26 05:19:10;;;;;;;13.60;1.52;;;9.30;36.10;;;;;;20667641;28;20049;-41
2023/12/26 05:29:11;;;;;;;6.90;0.90;;;9.10;28.00;;;;;;20665227;28;20042;-41
2023/12/26 05:39:12;;;;;;;9.32;2.20;;;8.90;34.80;;;;;;20667404;28;20133;-41
2023/12/26 05:49:12;;;;;;;7.10;1.15;;;8.80;26.40;;;;;;20665418;28;20164;-41
2023/12/26 05:59:14;;;;;;;7.38;1.20;;;8.60;28.60;;;;;;20664340;28;20069;-41
2023/12/26 06:09:16;;;;;;;6.10;0.95;;;8.50;31.60;;;;;;20668561;28;20410;-41
2023/12/26 06:19:18;;;;;;;7.40;1.27;;;8.50;30.70;;;;;;20682224;28;20057;-41
2023/12/26 06:29:18;;;;;;;12.65;1.20;;;8.60;22.20;;;;;;20679358;28;20133;-41
2023/12/26 06:39:19;;;;;;;13.55;1.27;;;8.60;20.40;;;;;;20677443;28;20077;-41
2023/12/26 06:49:19;;;;;;;9.50;1.90;;;8.50;28.80;;;;;;20680117;28;20046;-41
2023/12/26 06:59:20;;;;;;;10.48;1.52;;;8.50;19.60;;;;;;20677565;28;20046;-41
2023/12/26 07:09:20;;;;;;;12.43;1.40;;;8.60;8.90;;;;;;20675955;28;20045;-40
2023/12/26 07:19:21;;;;;;;9.13;1.58;;;8.70;6.60;;;;;;20675907;28;20034;-41
2023/12/26 07:29:23;;;;;;;9.73;1.40;;;8.40;14.90;;;;;;20670986;28;20508;-41
2023/12/26 07:39:24;;;;;;;12.98;1.30;;;8.50;12.20;;;;;;20672849;28;20064;-41
2023/12/26 07:49:24;;;;;;;7.38;0.95;;;8.50;8.40;;;;;;20676101;28;20054;-40
2023/12/26 07:59:25;;;;;;;8.85;2.05;;;8.50;6.40;;;;;;20673030;28;20066;-41
2023/12/26 08:09:25;;;;;;;9.30;1.35;;;8.30;11.50;;;;;;20670406;28;20038;-41
2023/12/26 08:19:26;;;;;;;9.13;1.52;;;8.50;6.80;;;;;;20671996;28;20469;-41
2023/12/26 08:29:26;;;;;;;12.68;1.35;;;8.50;5.40;;;;;;20666531;28;20046;-41
2023/12/26 08:39:27;;;;;;;11.10;1.70;;;8.60;4.20;;;;;;20669115;28;20524;-41
2023/12/26 08:49:27;;;;;;;9.15;1.45;;;8.70;5.80;;;;;;20670002;28;20461;-40
2023/12/26 08:59:28;;;;;;;8.02;1.42;;;8.80;6.90;;;;;;20667494;28;20061;-40
2023/12/26 09:09:29;;;;;;;9.57;1.23;;;8.80;3.50;;;;;;20666803;28;20049;-40
2023/12/26 09:19:29;;;;;;;12.75;1.73;;;8.70;5.50;;;;;;20667710;28;20046;-40
2023/12/26 09:29:30;;;;;;;15.15;2.13;;;8.90;3.30;;;;;;20664897;28;20070;-40
2023/12/26 09:39:30;;;;;;;12.38;1.65;;;9.00;2.60;;;;;;20665286;28;20148;-40
2023/12/26 09:49:31;;;;;;;9.70;1.52;;;9.30;1.00;;;;;;20665756;28;20042;-40
2023/12/26 09:59:34;;;;;;;12.17;1.53;;;9.40;1.00;;;;;;20662006;28;20142;-41
2023/12/26 10:09:35;;;;;;;12.98;1.73;;;9.50;1.00;;;;;;20665041;28;20045;-41
2023/12/26 10:19:37;;;;;;;13.25;1.83;;;9.80;1.00;;;;;;20662767;28;20058;-40
2023/12/26 10:29:37;;;;;;;14.52;2.78;;;9.90;1.00;;;;;;20661828;28;20042;-40
2023/12/26 10:39:41;;;;;;;8.67;1.73;;;10.10;1.00;;;;;;20660662;28;20050;-41
2023/12/26 10:49:42;;;;;;;10.90;2.60;;;10.70;1.00;;;;;;20658694;28;20480;-41
2023/12/26 10:59:43;;;;;;;10.48;2.17;;;10.70;1.00;;;;;;20669166;28;20050;-40
2023/12/26 11:09:44;;;;;;;8.73;1.38;;;10.50;1.00;;;;;;20669096;28;20053;-41
2023/12/26 11:19:44;;;;;;;12.52;1.70;;;10.30;1.00;;;;;;20674681;28;20046;-40
2023/12/26 11:29:45;;;;;;;11.50;1.83;;;10.20;1.00;;;;;;20657785;28;20053;-40
2023/12/26 11:39:45;;;;;;;10.02;1.25;;;10.10;1.00;;;;;;20671809;28;20061;-40
2023/12/26 11:49:46;;;;;;;7.30;1.50;;;10.00;1.00;;;;;;20641565;28;20041;-40
2023/12/26 11:59:47;;;;;;;9.50;1.50;;;10.00;1.00;;;;;;20670609;28;20446;-41
2023/12/26 12:09:47;;;;;;;8.27;1.10;;;10.10;1.00;;;;;;20663191;28;20487;-41
2023/12/26 12:19:48;;;;;;;6.60;1.08;;;10.00;1.00;;;;;;20670398;28;20490;-41
2023/12/26 12:29:59;;;;;;;6.18;1.80;;;10.10;1.00;;;;;;20668176;28;20357;-40
2023/12/26 12:39:59;;;;;;;7.72;1.20;;;10.00;1.00;;;;;;20664622;28;20401;-40
2023/12/26 12:50:00;;;;;;;4.78;0.80;;;10.10;1.00;;;;;;20666901;28;20058;-41
2023/12/26 13:00:01;;;;;;;4.55;1.10;;;10.10;1.00;;;;;;20666941;28;20038;-41
2023/12/26 13:10:01;;;;;;;9.95;1.38;;;10.10;1.00;;;;;;20663579;28;20401;-40
2023/12/26 13:20:03;;;;;;;6.72;1.10;;;10.00;1.00;;;;;;20667498;28;20046;-41
2023/12/26 13:30:03;;;;;;;7.20;1.20;;;10.00;1.00;;;;;;20666989;28;20056;-40
2023/12/26 13:40:04;;;;;;;11.30;2.28;;;10.00;1.00;;;;;;20665341;28;20050;-40
2023/12/26 13:50:04;;;;;;;8.18;1.50;;;9.90;1.00;;;;;;20665906;28;20049;-41
2023/12/26 14:00:05;;;;;;;8.93;2.08;;;9.90;1.00;;;;;;20665527;28;20050;-41
2023/12/26 14:10:06;;;;;;;11.30;1.73;;;9.80;1.00;;;;;;20664679;28;20035;-41
2023/12/26 14:20:08;;;;;;;5.97;1.30;;;9.80;1.00;;;;;;20666125;28;20454;-41
2023/12/26 14:30:08;;;;;;;7.70;1.65;;;9.70;1.00;;;;;;20669100;28;20510;-40
2023/12/26 14:40:09;;;;;;;9.95;1.67;;;9.60;1.00;;;;;;20677345;28;20230;-40
2023/12/26 14:50:09;;;;;;;11.25;1.73;;;9.60;1.00;;;;;;20679218;28;20521;-40
2023/12/26 15:00:10;;;;;;;7.97;1.30;;;9.60;1.00;;;;;;20677204;28;20049;-40
2023/12/26 15:10:11;;;;;;;7.03;1.33;;;9.60;1.00;;;;;;20675843;28;20050;-41
2023/12/26 15:20:11;;;;;;;7.72;1.27;;;9.30;1.00;;;;;;20675247;28;20039;-41
2023/12/26 15:30:12;;;;;;;13.55;4.93;;;9.30;1.00;;;;;;20676695;28;20050;-40
2023/12/26 15:40:13;;;;;;;7.47;1.80;;;9.20;2.90;;;;;;20671931;28;20050;-40
2023/12/26 15:50:14;;;;;;;8.93;1.75;;;9.20;1.00;;;;;;20672972;28;20057;-40
2023/12/26 16:00:15;;;;;;;6.35;2.17;;;9.00;1.00;;;;;;20672991;28;20506;-40
2023/12/26 16:10:18;;;;;;;8.15;2.22;;;9.20;1.00;;;;;;20671772;28;20417;-40
2023/12/26 16:20:19;;;;;;;6.43;3.60;;;8.90;1.00;;;;;;20671518;28;20489;-40
2023/12/26 16:30:19;;;;;;;6.93;2.92;;;8.60;1.00;;;;;;20661201;28;20128;-40
2023/12/26 16:40:20;;;;;;;16.75;6.28;;;8.40;1.00;;;;;;20668945;28;20153;-40
2023/12/26 16:50:20;;;;;;;7.90;3.00;;;8.30;1.00;;;;;;20666446;28;20054;-41
2023/12/26 17:00:21;;;;;;;9.27;2.70;;;8.00;1.00;;;;;;20669887;28;20038;-40
2023/12/26 17:10:22;;;;;;;7.00;2.67;;;7.70;2.70;;;;;;20665885;28;20437;-40
2023/12/26 17:20:22;;;;;;;7.85;2.00;;;7.50;9.90;;;;;;20666816;28;20038;-40
2023/12/26 17:30:23;;;;;;;6.80;1.70;;;7.40;11.20;;;;;;20668314;28;20054;-40
2023/12/26 17:40:23;;;;;;;8.33;2.03;;;7.10;16.90;;;;;;20667060;28;20520;-40
2023/12/26 17:50:24;;;;;;;10.30;3.33;;;6.80;22.50;;;;;;20666423;28;20124;-40
2023/12/26 18:00:24;;;;;;;12.55;4.75;;;6.70;34.80;;;;;;20667927;28;20135;-40
2023/12/26 18:10:25;;;;;;;15.98;6.03;;;6.50;40.30;;;;;;20679418;28;20081;-40
2023/12/26 18:20:25;;;;;;;13.23;5.85;;;6.30;46.70;;;;;;20684999;28;20535;-40
2023/12/26 18:30:26;;;;;;;12.45;5.93;;;6.20;54.00;;;;;;20681883;28;20129;-40
2023/12/26 18:40:26;;;;;;;10.65;6.20;;;6.20;70.70;;;;;;20679037;28;20046;-40
2023/12/26 18:50:27;;;;;;;19.70;9.13;;;6.20;70.40;;;;;;20682835;28;20045;-40
2023/12/26 19:00:28;;;;;;;13.48;7.93;;;6.20;86.10;;;;;;20676803;28;20433;-40
2023/12/26 19:10:28;;;;;;;13.63;6.10;;;6.10;83.80;;;;;;20676536;28;20145;-40
2023/12/26 19:20:29;;;;;;;11.82;4.90;;;6.00;82.60;;;;;;20677795;28;20112;-40
2023/12/26 19:30:29;;;;;;;12.25;6.68;;;5.90;82.10;;;;;;20678761;28;20046;-40
2023/12/26 19:40:30;;;;;;;16.83;7.60;;;5.70;84.10;;;;;;20676279;28;20043;-40
2023/12/26 19:50:30;;;;;;;13.10;6.32;;;5.60;85.50;;;;;;20679601;28;20050;-40
2023/12/26 20:00:31;;;;;;;12.02;5.88;;;5.50;89.60;;;;;;20679397;28;20057;-40
2023/12/26 20:10:36;;;;;;;12.32;6.00;;;5.40;89.80;;;;;;20674206;28;20049;-40
2023/12/26 20:20:37;;;;;;;11.75;6.18;;;5.30;89.10;;;;;;20675654;28;20050;-41
2023/12/26 20:30:37;;;;;;;16.33;8.35;;;5.10;84.20;;;;;;20674973;28;20050;-40
2023/12/26 20:40:38;;;;;;;17.33;7.88;;;5.10;85.00;;;;;;20673120;28;20482;-40
2023/12/26 20:50:39;;;;;;;14.23;6.53;;;5.00;90.50;;;;;;20668442;28;20477;-40
2023/12/26 21:00:39;;;;;;;14.60;8.43;;;5.00;91.30;;;;;;20670177;28;20038;-40
2023/12/26 21:10:40;;;;;;;20.38;10.00;;;5.10;99.90;;;;;;20669789;28;20053;-40
2023/12/26 21:20:41;;;;;;;28.70;13.38;;;5.10;99.90;;;;;;20669867;28;20182;-40
2023/12/26 21:30:41;;;;;;;26.85;13.00;;;5.10;99.90;;;;;;20668986;28;20509;-40
2023/12/26 21:40:42;;;;;;;26.60;13.37;;;5.10;99.90;;;;;;20666061;28;20053;-40
2023/12/26 21:50:44;;;;;;;28.80;12.70;;;5.00;99.90;;;;;;20667674;28;20473;-40
2023/12/26 22:00:47;;;;;;;26.20;13.50;;;5.00;99.90;;;;;;20668676;28;20054;-40
2023/12/26 22:10:48;;;;;;;32.33;15.35;;;4.90;99.90;;;;;;20667688;28;20042;-39
2023/12/26 22:20:49;;;;;;;30.75;15.32;;;4.80;99.90;;;;;;20670450;28;20077;-40
2023/12/26 22:30:49;;;;;;;24.90;13.67;;;4.80;99.90;;;;;;20668053;28;20076;-40
2023/12/26 22:40:50;;;;;;;22.85;11.10;;;4.70;99.90;;;;;;20670999;28;20814;-40
2023/12/26 22:50:50;;;;;;;20.67;9.60;;;4.60;99.90;;;;;;20672964;28;20045;-39
2023/12/26 23:00:51;;;;;;;16.83;10.77;;;4.60;99.90;;;;;;20668689;28;20065;-40
2023/12/26 23:10:53;;;;;;;19.20;10.80;;;4.60;99.90;;;;;;20679312;28;20770;-39
2023/12/26 23:20:54;;;;;;;17.30;10.45;;;4.60;99.90;;;;;;20676921;28;20120;-39
2023/12/26 23:30:54;;;;;;;19.88;9.45;;;4.70;99.90;;;;;;20670653;28;20046;-40
2023/12/26 23:40:55;;;;;;;19.67;8.60;;;4.60;99.90;;;;;;20679473;28;20046;-40
2023/12/26 23:50:55;;;;;;;14.80;8.52;;;4.60;99.90;;;;;;20679181;28;20049;-40
